Time;durP1;ratioP1;P1;durP2;ratioP2;P2;SDS_P1;SDS_P2;PMS_P1;PMS_P2;Temp;Humidity;BMP_temperature;BMP_pressure;BME280_temperature;BME280_humidity;BME280_pressure;Samples;Min_cycle;Max_cycle;Signal;HPM_P1;HPM_P2
2023/12/12 00:04:30;;;;;;;18.92;5.85;;;;;;;5.25;99.34;99626.41;10395847;28;20179;-81
2023/12/12 00:09:33;;;;;;;13.27;5.10;;;;;;;5.39;99.69;99636.91;10379824;28;20055;-80
2023/12/12 00:14:36;;;;;;;16.55;5.38;;;;;;;5.44;99.54;99634.78;10379003;28;20187;-80
2023/12/12 00:19:43;;;;;;;14.88;5.88;;;;;;;5.62;99.15;99637.94;10390597;28;20056;-81
2023/12/12 00:24:46;;;;;;;11.73;4.45;;;;;;;5.64;97.93;99637.81;10379757;28;20132;-80
2023/12/12 00:29:49;;;;;;;13.35;5.32;;;;;;;5.65;97.62;99647.50;10395789;28;20060;-81
2023/12/12 00:34:53;;;;;;;17.45;5.82;;;;;;;5.59;97.81;99648.78;10400459;28;20881;-80
2023/12/12 00:39:56;;;;;;;14.30;5.30;;;;;;;5.73;97.45;99640.66;10395275;28;20045;-80
2023/12/12 00:44:59;;;;;;;16.35;5.60;;;;;;;5.82;96.37;99636.47;10379699;28;20037;-81
2023/12/12 00:50:04;;;;;;;13.45;5.20;;;;;;;5.93;95.33;99646.38;10379313;28;20050;-80
2023/12/12 00:55:08;;;;;;;14.07;5.28;;;;;;;5.55;98.22;99634.00;10379580;28;20495;-82
2023/12/12 01:00:11;;;;;;;15.93;5.05;;;;;;;5.55;98.76;99636.66;10379661;28;20064;-80
2023/12/12 01:05:16;;;;;;;15.77;5.97;;;;;;;5.90;96.15;99626.09;10401059;28;20061;-81
2023/12/12 01:10:20;;;;;;;17.23;5.05;;;;;;;5.91;95.93;99633.13;10416871;28;20063;-81
2023/12/12 01:15:24;;;;;;;15.18;6.07;;;;;;;5.73;97.43;99630.00;10420757;28;20604;-81
2023/12/12 01:20:28;;;;;;;15.43;5.65;;;;;;;5.81;97.18;99636.59;10407585;28;20061;-80
2023/12/12 01:25:31;;;;;;;13.38;5.65;;;;;;;5.75;97.66;99637.88;10386048;28;20053;-80
2023/12/12 01:30:34;;;;;;;14.52;4.90;;;;;;;5.82;98.42;99639.16;10386500;28;20057;-80
2023/12/12 01:35:43;;;;;;;19.52;6.95;;;;;;;6.07;96.36;99648.84;10401592;28;20161;-80
2023/12/12 01:40:47;;;;;;;15.23;6.63;;;;;;;6.05;96.91;99650.78;10388883;28;20191;-80
2023/12/12 01:45:51;;;;;;;18.10;6.63;;;;;;;5.94;98.44;99653.38;10382278;28;20641;-81
2023/12/12 01:50:56;;;;;;;16.13;5.57;;;;;;;5.63;100.00;99650.28;10389083;28;20674;-79
2023/12/12 01:56:02;;;;;;;15.48;6.55;;;;;;;5.84;100.00;99653.22;10382669;28;20049;-80
2023/12/12 02:01:05;;;;;;;11.88;6.07;;;;;;;5.71;100.00;99649.75;10418404;28;20053;-81
2023/12/12 02:06:10;;;;;;;17.25;6.47;;;;;;;5.58;100.00;99652.44;10401127;28;21636;-81
2023/12/12 02:11:14;;;;;;;14.73;6.50;;;;;;;5.86;100.00;99651.28;10418530;28;20712;-82
2023/12/12 02:16:17;;;;;;;16.10;6.05;;;;;;;5.38;100.00;99664.50;10398563;28;20056;-82
2023/12/12 02:21:22;;;;;;;21.98;7.28;;;;;;;5.58;100.00;99657.75;10408663;28;20068;-81
2023/12/12 02:26:25;;;;;;;16.20;6.47;;;;;;;5.58;100.00;99647.09;10405098;28;20143;-82
2023/12/12 02:31:28;;;;;;;14.35;6.20;;;;;;;5.83;100.00;99642.66;10390987;28;20579;-80
2023/12/12 02:36:32;;;;;;;13.23;6.25;;;;;;;5.81;100.00;99648.09;10391936;28;20045;-81
2023/12/12 02:41:35;;;;;;;15.40;6.97;;;;;;;5.82;100.00;99647.16;10414201;28;20048;-82
2023/12/12 02:46:39;;;;;;;15.95;7.03;;;;;;;5.82;100.00;99639.16;10419948;28;20077;-81
2023/12/12 02:51:44;;;;;;;14.18;7.18;;;;;;;5.72;100.00;99625.63;10422290;28;20132;-82
2023/12/12 02:56:47;;;;;;;17.67;5.97;;;;;;;5.67;100.00;99632.25;10389701;28;20049;-83
2023/12/12 03:01:50;;;;;;;16.35;6.82;;;;;;;5.61;100.00;99640.69;10405482;28;20052;-82
2023/12/12 03:06:54;;;;;;;22.10;6.88;;;;;;;5.69;100.00;99633.00;10403952;28;20084;-82
2023/12/12 03:11:57;;;;;;;13.40;6.45;;;;;;;5.74;100.00;99625.53;10390055;28;20051;-81
2023/12/12 03:17:00;;;;;;;18.02;6.82;;;;;;;5.69;100.00;99627.69;10426388;28;20047;-81
2023/12/12 03:22:05;;;;;;;15.75;7.97;;;;;;;5.78;100.00;99626.16;10433586;28;20112;-82
2023/12/12 03:27:08;;;;;;;16.60;7.20;;;;;;;5.82;100.00;99620.50;10426821;28;20050;-84
2023/12/12 03:32:11;;;;;;;14.27;7.35;;;;;;;5.80;100.00;99621.56;10410215;28;20060;-82
2023/12/12 03:37:17;;;;;;;16.02;7.72;;;;;;;5.81;100.00;99615.25;10424014;28;20557;-83
2023/12/12 03:42:20;;;;;;;17.90;7.97;;;;;;;5.78;100.00;99615.50;10392037;28;20053;-83
2023/12/12 03:47:23;;;;;;;19.20;6.70;;;;;;;5.77;100.00;99611.13;10405788;28;20113;-82
2023/12/12 03:52:27;;;;;;;16.20;8.23;;;;;;;5.73;100.00;99616.69;10391053;28;20049;-82
2023/12/12 03:57:30;;;;;;;17.40;7.82;;;;;;;5.82;100.00;99617.81;10390633;28;20101;-82
2023/12/12 04:02:33;;;;;;;18.70;8.48;;;;;;;5.84;100.00;99609.69;10402696;28;20097;-83
2023/12/12 04:07:38;;;;;;;18.95;8.50;;;;;;;5.78;100.00;99611.00;10407263;28;20053;-85
2023/12/12 04:12:42;;;;;;;19.58;8.77;;;;;;;5.83;100.00;99600.84;10416909;28;20052;-82
2023/12/12 04:17:45;;;;;;;28.00;9.35;;;;;;;5.74;100.00;99598.88;10426112;28;20056;-82
2023/12/12 04:22:49;;;;;;;20.13;8.35;;;;;;;5.75;100.00;99599.72;10425317;28;20072;-81
2023/12/12 04:27:52;;;;;;;18.73;8.43;;;;;;;5.80;100.00;99605.56;10415043;28;20460;-81
2023/12/12 04:32:55;;;;;;;16.02;8.10;;;;;;;5.83;100.00;99606.19;10412526;28;20052;-84
2023/12/12 04:37:59;;;;;;;18.27;9.07;;;;;;;5.91;100.00;99619.81;10418169;28;20052;-80
2023/12/12 04:43:02;;;;;;;18.73;8.65;;;;;;;5.90;100.00;99604.78;10417483;28;20445;-82
2023/12/12 04:48:06;;;;;;;21.38;9.45;;;;;;;5.97;100.00;99605.16;10417973;28;20084;-84
2023/12/12 04:53:11;;;;;;;22.08;10.23;;;;;;;5.90;100.00;99610.13;10412108;28;20037;-84
2023/12/12 04:58:13;;;;;;;16.95;7.68;;;;;;;5.82;100.00;99607.16;10434053;28;20037;-82
2023/12/12 05:03:16;;;;;;;16.77;8.43;;;;;;;5.68;100.00;99610.00;10440702;28;20110;-81
2023/12/12 05:08:21;;;;;;;20.38;8.60;;;;;;;5.97;100.00;99602.50;10423537;28;20045;-83
2023/12/12 05:13:24;;;;;;;16.58;7.05;;;;;;;5.90;100.00;99609.28;10423680;28;20049;-82
2023/12/12 05:18:27;;;;;;;17.17;9.80;;;;;;;5.95;100.00;99597.31;10426827;28;20053;-82
2023/12/12 05:23:31;;;;;;;22.58;9.07;;;;;;;6.02;100.00;99596.84;10434756;28;20087;-81
2023/12/12 05:28:34;;;;;;;18.48;9.70;;;;;;;6.02;100.00;99608.34;10434027;28;20049;-81
2023/12/12 05:33:37;;;;;;;19.90;8.70;;;;;;;6.00;100.00;99612.94;10458518;28;20053;-80
2023/12/12 05:38:42;;;;;;;20.42;10.25;;;;;;;6.09;100.00;99604.28;10431088;28;20053;-81
2023/12/12 05:43:45;;;;;;;20.42;9.00;;;;;;;6.11;100.00;99607.66;10433852;28;20045;-81
2023/12/12 05:48:49;;;;;;;21.70;9.75;;;;;;;6.08;100.00;99617.69;10446159;28;20072;-81
2023/12/12 05:53:54;;;;;;;22.25;9.82;;;;;;;6.09;100.00;99614.09;10438612;28;20052;-81
2023/12/12 05:58:57;;;;;;;15.43;8.88;;;;;;;6.13;100.00;99615.56;10436480;28;20100;-82
2023/12/12 06:04:00;;;;;;;22.92;11.57;;;;;;;6.15;100.00;99617.13;10439351;28;20045;-80
2023/12/12 06:09:05;;;;;;;30.95;14.93;;;;;;;6.18;100.00;99611.56;10437339;28;20120;-80
2023/12/12 06:14:08;;;;;;;31.60;16.10;;;;;;;6.22;100.00;99603.34;10450487;28;21154;-82
2023/12/12 06:19:11;;;;;;;41.15;18.02;;;;;;;6.21;100.00;99597.16;10428496;28;20116;-82
2023/12/12 06:24:15;;;;;;;33.78;18.02;;;;;;;6.22;100.00;99596.19;10407649;28;20105;-81
2023/12/12 06:29:18;;;;;;;36.10;18.77;;;;;;;6.24;100.00;99596.94;10408546;28;20045;-81
2023/12/12 06:34:21;;;;;;;37.22;19.83;;;;;;;6.30;100.00;99593.78;10430919;28;20043;-80
2023/12/12 06:39:26;;;;;;;48.90;23.20;;;;;;;6.28;100.00;99586.88;10437589;28;21038;-79
2023/12/12 06:44:29;;;;;;;53.80;24.70;;;;;;;6.28;100.00;99581.53;10428078;28;20041;-81
2023/12/12 06:49:32;;;;;;;48.47;23.90;;;;;;;6.27;100.00;99586.03;10440759;28;20045;-81
2023/12/12 06:54:36;;;;;;;46.17;24.48;;;;;;;6.27;100.00;99583.34;10444447;28;20118;-82
2023/12/12 06:59:39;;;;;;;55.13;25.75;;;;;;;6.29;100.00;99585.91;10391894;28;20049;-80
2023/12/12 07:04:42;;;;;;;48.55;23.65;;;;;;;6.33;100.00;99595.38;10392142;28;20642;-81
2023/12/12 07:09:47;;;;;;;48.90;24.50;;;;;;;6.33;100.00;99598.88;10389668;28;20045;-81
2023/12/12 07:15:02;;;;;;;51.38;24.95;;;;;;;6.34;100.00;99600.59;10385680;28;20053;-80
2023/12/12 07:20:06;;;;;;;50.28;24.73;;;;;;;6.34;100.00;99613.09;10406301;28;20049;-81
2023/12/12 07:25:11;;;;;;;49.85;23.83;;;;;;;6.37;100.00;99608.38;10394277;28;20063;-80
2023/12/12 07:30:14;;;;;;;40.13;21.08;;;;;;;6.37;100.00;99603.03;10423737;28;20068;-80
2023/12/12 07:35:17;;;;;;;43.60;21.58;;;;;;;6.42;100.00;99609.81;10400233;28;20049;-81
2023/12/12 07:40:22;;;;;;;18.45;8.25;;;;;;;6.38;100.00;99610.06;10415069;28;20055;-81
2023/12/12 07:45:25;;;;;;;41.15;21.67;;;;;;;6.67;100.00;99600.81;10409590;28;20057;-79
2023/12/12 07:50:28;;;;;;;49.92;19.10;;;;;;;6.65;100.00;99597.41;10418623;28;20055;-80
2023/12/12 07:55:33;;;;;;;46.08;16.73;;;;;;;6.62;100.00;99596.66;10416293;28;20072;-79
2023/12/12 08:00:36;;;;;;;31.65;14.32;;;;;;;6.61;100.00;99589.63;10410919;28;20057;-80
2023/12/12 08:05:39;;;;;;;40.60;14.38;;;;;;;6.58;100.00;99592.56;10421963;28;20080;-79
2023/12/12 08:10:43;;;;;;;29.42;13.90;;;;;;;6.47;100.00;99588.97;10413042;28;20049;-78
2023/12/12 08:15:46;;;;;;;38.45;11.68;;;;;;;6.41;100.00;99587.63;10410902;28;20053;-78
2023/12/12 08:20:50;;;;;;;29.98;11.88;;;;;;;6.63;100.00;99590.34;10422603;28;20052;-78
2023/12/12 08:25:54;;;;;;;31.88;11.10;;;;;;;6.62;100.00;99587.81;10402064;28;20055;-78
2023/12/12 08:30:57;;;;;;;25.23;10.52;;;;;;;6.77;100.00;99599.09;10404569;28;20057;-78
2023/12/12 08:36:00;;;;;;;29.98;11.60;;;;;;;6.87;100.00;99596.59;10423452;28;20375;-79
2023/12/12 08:41:07;;;;;;;27.70;9.13;;;;;;;6.72;100.00;99596.81;10422935;28;20045;-78
2023/12/12 08:46:14;;;;;;;28.35;9.45;;;;;;;6.64;100.00;99591.22;10434228;28;20045;-79
2023/12/12 08:51:17;;;;;;;21.73;7.55;;;;;;;6.66;100.00;99585.75;10412129;28;20411;-80
2023/12/12 08:56:22;;;;;;;26.75;8.57;;;;;;;6.79;100.00;99592.69;10408021;28;20057;-79
2023/12/12 09:01:25;;;;;;;27.80;8.63;;;;;;;6.93;100.00;99582.78;10410569;28;20045;-79
2023/12/12 09:06:28;;;;;;;26.15;8.52;;;;;;;6.99;100.00;99582.28;10414702;28;20049;-80
2023/12/12 09:11:35;;;;;;;26.90;8.82;;;;;;;7.26;100.00;99579.25;10430281;28;20069;-80
2023/12/12 09:16:38;;;;;;;22.08;7.72;;;;;;;8.03;100.00;99573.00;10420201;28;20092;-79
2023/12/12 09:21:41;;;;;;;19.10;6.68;;;;;;;8.78;100.00;99572.88;10411458;28;20128;-79
2023/12/12 09:26:46;;;;;;;21.40;6.55;;;;;;;9.18;100.00;99563.16;10414250;28;20063;-80
2023/12/12 09:31:50;;;;;;;18.20;6.57;;;;;;;9.46;97.98;99549.03;10394301;28;20151;-81
2023/12/12 09:36:53;;;;;;;15.80;4.63;;;;;;;9.67;90.29;99543.53;10402580;28;20498;-81
2023/12/12 09:42:01;;;;;;;13.05;4.90;;;;;;;9.43;82.70;99541.22;10401179;28;20045;-80
2023/12/12 09:47:05;;;;;;;18.02;4.53;;;;;;;9.92;93.47;99530.59;10406880;28;20076;-79
2023/12/12 09:52:10;;;;;;;12.15;4.78;;;;;;;10.25;90.92;99531.16;10408033;28;20060;-81
2023/12/12 09:57:16;;;;;;;14.95;4.72;;;;;;;9.61;89.40;99522.66;10433239;28;20049;-80
2023/12/12 10:02:23;;;;;;;12.23;4.47;;;;;;;9.53;85.15;99514.47;10414260;28;21345;-83
2023/12/12 10:07:28;;;;;;;17.77;4.63;;;;;;;8.95;86.99;99522.34;10426548;28;20045;-82
2023/12/12 10:12:33;;;;;;;17.27;4.75;;;;;;;8.70;88.96;99518.28;10424569;28;20049;-83
2023/12/12 10:17:39;;;;;;;12.88;4.32;;;;;;;8.75;90.30;99491.94;10440191;28;20051;-83
2023/12/12 10:22:42;;;;;;;14.30;4.65;;;;;;;8.74;89.81;99487.56;10430138;28;20049;-83
2023/12/12 10:27:47;;;;;;;14.48;4.90;;;;;;;8.57;86.98;99475.66;10411810;28;20041;-82
2023/12/12 10:32:52;;;;;;;17.83;5.50;;;;;;;8.66;90.01;99476.69;10425980;28;20040;-79
2023/12/12 10:37:55;;;;;;;13.80;4.55;;;;;;;8.56;87.25;99469.47;10429605;28;20056;-78
2023/12/12 10:43:07;;;;;;;14.93;4.15;;;;;;;8.55;90.48;99457.06;10449315;28;20132;-79
2023/12/12 10:48:13;;;;;;;15.15;4.25;;;;;;;8.41;90.58;99444.00;10448131;28;21121;-79
2023/12/12 10:53:17;;;;;;;11.98;3.88;;;;;;;8.47;93.27;99437.28;10440583;28;20065;-79
2023/12/12 10:58:22;;;;;;;14.80;5.03;;;;;;;8.46;91.73;99427.59;10431919;28;20048;-79
2023/12/12 11:03:25;;;;;;;16.90;4.63;;;;;;;8.43;94.03;99420.63;10419328;28;20100;-81
2023/12/12 11:08:29;;;;;;;24.13;6.22;;;;;;;8.58;91.04;99403.28;10420423;28;20040;-79
2023/12/12 11:13:36;;;;;;;15.98;4.45;;;;;;;8.68;89.24;99399.78;10424162;28;20053;-81
2023/12/12 11:18:42;;;;;;;20.33;4.57;;;;;;;8.74;88.01;99396.53;10424997;28;20577;-80
2023/12/12 11:23:54;;;;;;;17.08;4.53;;;;;;;8.56;84.75;99381.13;10417099;28;21098;-81
2023/12/12 11:28:58;;;;;;;19.45;4.70;;;;;;;8.67;85.68;99366.81;10418286;28;20048;-81
2023/12/12 11:34:06;;;;;;;13.38;4.38;;;;;;;8.57;85.84;99356.06;10422999;28;20064;-80
2023/12/12 11:39:13;;;;;;;18.63;5.65;;;;;;;8.47;86.21;99355.16;10411712;28;20424;-80
2023/12/12 11:44:20;;;;;;;14.73;4.15;;;;;;;8.50;86.61;99349.56;10424841;28;20045;-80
2023/12/12 11:49:24;;;;;;;15.68;4.30;;;;;;;8.42;84.73;99340.47;10414742;28;20045;-81
2023/12/12 11:54:27;;;;;;;13.73;4.07;;;;;;;8.47;86.73;99331.09;10418350;28;20053;-81
2023/12/12 11:59:32;;;;;;;15.07;3.83;;;;;;;8.54;86.03;99329.56;10414885;28;20068;-82
2023/12/12 12:04:36;;;;;;;16.67;4.40;;;;;;;8.76;86.45;99317.78;10409891;28;20060;-80
2023/12/12 12:09:39;;;;;;;16.92;4.38;;;;;;;8.85;82.88;99324.13;10445748;28;20063;-82
2023/12/12 12:14:44;;;;;;;21.27;4.25;;;;;;;9.10;82.54;99312.00;10418773;28;20044;-81
2023/12/12 12:19:47;;;;;;;16.52;3.90;;;;;;;9.28;80.69;99301.44;10426294;28;20040;-81
2023/12/12 12:24:50;;;;;;;12.43;4.05;;;;;;;9.34;82.52;99295.50;10416116;28;20059;-81
2023/12/12 12:30:02;;;;;;;13.40;3.97;;;;;;;9.35;80.65;99291.00;10418521;28;20072;-81
2023/12/12 12:35:05;;;;;;;;;;;;;;;9.37;80.10;99283.66;10419943;28;20053;-80
2023/12/12 12:40:10;;;;;;;16.58;4.68;;;;;;;9.44;84.17;99266.88;10406421;28;19925;-81
2023/12/12 12:45:18;;;;;;;19.75;5.68;;;;;;;9.13;82.74;99262.66;10420330;28;20052;-80
2023/12/12 12:50:21;;;;;;;17.20;5.88;;;;;;;9.11;82.64;99254.78;10413801;28;20057;-80
2023/12/12 12:55:24;;;;;;;15.50;5.68;;;;;;;9.25;82.55;99251.66;10419206;28;20049;-80
2023/12/12 13:00:29;;;;;;;14.63;5.40;;;;;;;9.53;80.83;99237.50;10430234;28;20131;-81
2023/12/12 13:05:32;;;;;;;14.18;5.10;;;;;;;9.55;80.03;99240.88;10432938;28;20055;-82
2023/12/12 13:10:36;;;;;;;12.60;5.00;;;;;;;9.72;80.77;99240.94;10420583;28;20799;-80
2023/12/12 13:15:53;;;;;;;9.40;4.28;;;;;;;9.68;78.21;99233.34;10407581;28;20053;-81
2023/12/12 13:20:56;;;;;;;7.90;4.28;;;;;;;10.40;76.37;99223.72;10409169;28;20051;-81
2023/12/12 13:25:59;;;;;;;11.80;4.05;;;;;;;10.99;72.32;99216.84;10424526;28;20049;-79
2023/12/12 13:31:04;;;;;;;9.32;3.70;;;;;;;11.31;73.28;99204.72;10444823;28;20045;-80
2023/12/12 13:36:07;;;;;;;9.07;3.58;;;;;;;11.57;69.04;99195.78;10426781;28;20528;-80
2023/12/12 13:41:10;;;;;;;12.13;4.05;;;;;;;11.46;68.68;99191.53;10426352;28;20053;-80
2023/12/12 13:46:15;;;;;;;16.20;5.43;;;;;;;11.61;69.32;99183.72;10426233;28;20049;-80
2023/12/12 13:51:18;;;;;;;11.98;3.80;;;;;;;11.61;68.79;99168.41;10433633;28;20060;-80
2023/12/12 13:56:29;;;;;;;9.40;3.90;;;;;;;11.17;70.99;99170.34;10425596;28;20052;-81
2023/12/12 14:01:34;;;;;;;11.75;4.75;;;;;;;10.16;73.34;99158.03;10431760;28;20072;-80
2023/12/12 14:06:37;;;;;;;13.60;4.70;;;;;;;9.59;76.96;99169.88;10440406;28;20049;-79
2023/12/12 14:11:40;;;;;;;13.18;4.57;;;;;;;9.29;77.68;99161.94;10422828;28;20049;-80
2023/12/12 14:16:45;;;;;;;16.85;4.68;;;;;;;8.78;80.00;99157.84;10431034;28;20045;-80
2023/12/12 14:21:52;;;;;;;24.02;5.60;;;;;;;8.46;82.14;99143.91;10429515;28;21231;-80
2023/12/12 14:26:55;;;;;;;15.65;4.97;;;;;;;8.43;82.94;99141.50;10429254;28;20096;-82
2023/12/12 14:32:00;;;;;;;16.98;5.90;;;;;;;8.26;84.09;99137.69;10425658;28;20045;-80
2023/12/12 14:37:03;;;;;;;13.13;5.28;;;;;;;8.07;84.98;99139.34;10440246;28;20041;-80
2023/12/12 14:42:07;;;;;;;16.33;5.03;;;;;;;7.90;85.96;99126.66;10425872;28;20045;-79
2023/12/12 14:47:11;;;;;;;17.83;5.35;;;;;;;7.81;86.83;99125.63;10424920;28;20064;-80
2023/12/12 14:52:15;;;;;;;17.73;5.70;;;;;;;7.69;87.42;99121.41;10428243;28;20041;-79
2023/12/12 14:57:18;;;;;;;13.88;5.35;;;;;;;7.64;87.99;99113.78;10443217;28;20099;-81
2023/12/12 15:02:27;;;;;;;18.08;5.80;;;;;;;7.63;88.21;99105.91;10461736;28;20105;-79
2023/12/12 15:07:30;;;;;;;19.20;6.10;;;;;;;7.54;88.68;99101.38;10421228;28;21470;-80
2023/12/12 15:12:33;;;;;;;22.08;7.07;;;;;;;7.47;89.13;99088.56;10429230;28;20114;-79
2023/12/12 15:17:38;;;;;;;17.98;5.95;;;;;;;7.40;89.57;99094.56;10435563;28;20049;-80
2023/12/12 15:22:41;;;;;;;16.08;6.03;;;;;;;7.41;89.89;99094.44;10421214;28;20060;-80
2023/12/12 15:27:44;;;;;;;16.27;7.05;;;;;;;7.46;90.01;99078.88;10409597;28;21214;-78
2023/12/12 15:33:09;;;;;;;22.50;12.85;;;;;;;7.47;90.14;99067.19;10401217;28;20048;-79
2023/12/12 15:38:12;;;;;;;24.73;10.73;;;;;;;7.52;89.93;99053.41;10404330;28;20053;-80
2023/12/12 15:43:15;;;;;;;26.48;12.70;;;;;;;7.48;89.80;99044.81;10413560;28;20045;-78
2023/12/12 15:48:20;;;;;;;18.90;7.60;;;;;;;7.50;89.21;99034.84;10403405;28;20124;-79
2023/12/12 15:53:23;;;;;;;19.13;6.50;;;;;;;7.59;88.44;99035.00;10393643;28;20060;-79
2023/12/12 15:58:26;;;;;;;20.88;8.20;;;;;;;7.61;87.17;99035.72;10407961;28;20719;-79
2023/12/12 16:03:30;;;;;;;17.38;5.07;;;;;;;7.59;86.28;99027.81;10418859;28;21215;-80
2023/12/12 16:08:33;;;;;;;15.02;5.75;;;;;;;7.52;85.72;99017.84;10417658;28;20668;-79
2023/12/12 16:13:37;;;;;;;17.75;6.55;;;;;;;7.58;85.08;99009.28;10420830;28;20060;-79
2023/12/12 16:18:41;;;;;;;17.48;6.47;;;;;;;7.63;85.01;98999.84;10415378;28;20053;-79
2023/12/12 16:23:44;;;;;;;19.13;5.50;;;;;;;7.57;85.43;98992.41;10410326;28;20056;-78
2023/12/12 16:28:48;;;;;;;19.33;5.88;;;;;;;7.62;86.03;98986.63;10425946;28;20417;-79
2023/12/12 16:33:52;;;;;;;18.45;5.30;;;;;;;7.51;87.05;98984.91;10413241;28;20057;-80
2023/12/12 16:38:59;;;;;;;23.45;5.70;;;;;;;7.40;89.02;98980.53;10402501;28;20076;-78
2023/12/12 16:44:04;;;;;;;23.25;5.70;;;;;;;7.22;90.75;98980.38;10417879;28;20052;-80
2023/12/12 16:49:08;;;;;;;19.88;5.60;;;;;;;7.32;91.39;98975.03;10407215;28;20057;-80
2023/12/12 16:54:11;;;;;;;23.08;5.35;;;;;;;7.22;92.44;98961.69;10415420;28;20056;-80
2023/12/12 16:59:17;;;;;;;18.33;4.65;;;;;;;7.20;94.46;98966.31;10422857;28;20052;-81
2023/12/12 17:04:21;;;;;;;18.48;5.05;;;;;;;7.07;96.31;98960.38;10422440;28;20056;-79
2023/12/12 17:09:25;;;;;;;17.13;5.57;;;;;;;6.88;99.55;98958.47;10417370;28;20047;-80
2023/12/12 17:14:28;;;;;;;22.17;5.90;;;;;;;6.97;100.00;98956.84;10418064;28;20055;-80
2023/12/12 17:19:32;;;;;;;18.85;5.25;;;;;;;6.93;100.00;98948.25;10419102;28;20046;-80
2023/12/12 17:24:37;;;;;;;20.35;5.78;;;;;;;6.76;100.00;98949.72;10437925;28;20053;-79
2023/12/12 17:29:40;;;;;;;24.48;7.15;;;;;;;6.81;100.00;98938.63;10434291;28;20053;-79
2023/12/12 17:34:45;;;;;;;33.53;8.18;;;;;;;6.72;100.00;98934.97;10411940;28;20201;-78
2023/12/12 17:39:48;;;;;;;23.17;6.72;;;;;;;6.72;100.00;98929.63;10421245;28;20045;-80
2023/12/12 17:44:54;;;;;;;25.45;7.53;;;;;;;6.78;100.00;98934.41;10421813;28;20405;-80
2023/12/12 17:49:59;;;;;;;26.85;7.05;;;;;;;6.79;100.00;98928.09;10420291;28;20041;-79
2023/12/12 17:55:12;;;;;;;22.17;7.20;;;;;;;6.69;100.00;98913.88;10409488;28;20512;-80
2023/12/12 18:00:17;;;;;;;26.02;6.82;;;;;;;6.78;100.00;98889.03;10416123;28;20045;-80
2023/12/12 18:05:26;;;;;;;28.58;8.15;;;;;;;6.61;100.00;98871.03;10417508;28;20528;-81
2023/12/12 18:10:29;;;;;;;26.63;10.13;;;;;;;6.61;100.00;98847.03;10427928;28;21176;-81
2023/12/12 18:15:32;;;;;;;17.50;7.93;;;;;;;6.50;100.00;98853.31;10435139;28;20552;-81
2023/12/12 18:20:39;;;;;;;27.45;8.25;;;;;;;6.61;100.00;98849.69;10439219;28;20052;-81
2023/12/12 18:25:43;;;;;;;27.10;9.82;;;;;;;6.56;100.00;98842.09;10425405;28;20059;-81
2023/12/12 18:30:48;;;;;;;32.13;10.13;;;;;;;6.55;100.00;98839.53;10419820;28;20186;-81
2023/12/12 18:35:53;;;;;;;25.35;10.00;;;;;;;6.63;100.00;98832.53;10416143;28;20065;-80
2023/12/12 18:40:56;;;;;;;23.63;9.35;;;;;;;6.67;100.00;98827.78;10430895;28;20095;-80
2023/12/12 18:45:59;;;;;;;29.48;10.43;;;;;;;6.74;100.00;98812.91;10426348;28;21795;-80
2023/12/12 18:51:04;;;;;;;28.80;8.95;;;;;;;6.63;100.00;98810.34;10416541;28;20167;-80
2023/12/12 18:56:10;;;;;;;26.58;10.45;;;;;;;6.60;100.00;98799.97;10428804;28;20052;-80
2023/12/12 19:01:16;;;;;;;21.48;10.82;;;;;;;6.53;100.00;98801.50;10427614;28;20052;-79
2023/12/12 19:06:21;;;;;;;40.58;12.20;;;;;;;6.55;100.00;98796.84;10425506;28;20048;-80
2023/12/12 19:11:24;;;;;;;25.23;11.55;;;;;;;6.66;100.00;98802.06;10427047;28;20067;-79
2023/12/12 19:16:32;;;;;;;34.13;13.63;;;;;;;6.72;100.00;98801.53;10436687;28;20053;-80
2023/12/12 19:21:37;;;;;;;33.78;12.25;;;;;;;6.70;100.00;98783.97;10423387;28;20111;-80
2023/12/12 19:26:40;;;;;;;31.38;13.35;;;;;;;6.76;100.00;98786.91;10399710;28;20049;-80
2023/12/12 19:31:44;;;;;;;29.13;11.82;;;;;;;6.83;100.00;98782.72;10420816;28;20049;-80
2023/12/12 19:36:49;;;;;;;33.47;11.70;;;;;;;6.80;100.00;98767.00;10401347;28;20106;-81
2023/12/12 19:41:52;;;;;;;31.17;12.63;;;;;;;6.79;100.00;98759.13;10411500;28;20045;-79
2023/12/12 19:46:55;;;;;;;28.77;11.07;;;;;;;6.78;100.00;98760.13;10408469;28;20071;-79
2023/12/12 19:52:02;;;;;;;23.73;12.20;;;;;;;6.68;100.00;98757.41;10408660;28;20054;-79
2023/12/12 19:57:06;;;;;;;28.02;11.88;;;;;;;6.77;100.00;98758.41;10405389;28;20073;-79
2023/12/12 20:02:08;;;;;;;25.00;12.23;;;;;;;6.85;100.00;98771.91;10417126;28;20048;-81
2023/12/12 20:07:13;;;;;;;24.95;10.93;;;;;;;6.82;100.00;98773.00;10419304;28;20056;-80
2023/12/12 20:12:16;;;;;;;21.05;10.23;;;;;;;6.98;100.00;98771.66;10421730;28;20052;-79
2023/12/12 20:17:19;;;;;;;26.85;11.80;;;;;;;6.98;100.00;98758.31;10414812;28;20041;-80
2023/12/12 20:22:23;;;;;;;24.45;13.65;;;;;;;6.93;100.00;98755.22;10411973;28;20102;-80
2023/12/12 20:27:29;;;;;;;24.20;12.05;;;;;;;6.94;100.00;98755.09;10406360;28;20059;-78
2023/12/12 20:32:33;;;;;;;22.95;12.10;;;;;;;6.95;100.00;98756.75;10401454;28;20083;-80
2023/12/12 20:37:37;;;;;;;28.58;12.23;;;;;;;6.91;100.00;98750.03;10405979;28;20044;-79
2023/12/12 20:42:43;;;;;;;32.38;13.20;;;;;;;7.00;100.00;98748.34;10410270;28;20052;-79
2023/12/12 20:47:46;;;;;;;36.63;15.73;;;;;;;6.98;100.00;98748.47;10427237;28;20064;-80
2023/12/12 20:52:51;;;;;;;36.33;14.57;;;;;;;6.98;100.00;98751.13;10400145;28;20080;-79
2023/12/12 20:57:56;;;;;;;27.63;14.27;;;;;;;6.94;100.00;98740.88;10406345;28;20076;-79
2023/12/12 21:02:59;;;;;;;37.45;16.02;;;;;;;6.89;100.00;98735.16;10414448;28;20788;-79
2023/12/12 21:08:04;;;;;;;33.53;15.93;;;;;;;6.40;100.00;98724.41;10403551;28;20210;-80
2023/12/12 21:13:07;;;;;;;39.00;16.88;;;;;;;6.55;100.00;98727.50;10412898;28;20071;-78
2023/12/12 21:18:10;;;;;;;32.33;16.42;;;;;;;6.74;100.00;98716.00;10410659;28;20056;-78
2023/12/12 21:23:14;;;;;;;36.35;17.02;;;;;;;6.87;100.00;98715.72;10414388;28;20677;-79
2023/12/12 21:28:17;;;;;;;37.95;16.50;;;;;;;6.97;100.00;98716.59;10403864;28;20045;-79
2023/12/12 21:33:20;;;;;;;40.33;17.13;;;;;;;7.01;100.00;98712.63;10409630;28;20179;-79
2023/12/12 21:38:25;;;;;;;34.80;16.42;;;;;;;7.02;100.00;98703.63;10405744;28;20056;-78
2023/12/12 21:43:27;;;;;;;41.08;15.93;;;;;;;7.00;100.00;98705.63;10409680;28;20432;-79
2023/12/12 21:48:30;;;;;;;36.75;16.73;;;;;;;6.97;100.00;98700.59;10404330;28;20049;-79
2023/12/12 21:53:35;;;;;;;46.75;18.13;;;;;;;6.98;100.00;98692.41;10391739;28;20059;-79
2023/12/12 21:58:38;;;;;;;39.47;17.75;;;;;;;6.89;100.00;98674.59;10398106;28;20658;-79
2023/12/12 22:03:42;;;;;;;49.17;20.02;;;;;;;6.89;100.00;98674.59;10418440;28;20044;-80
2023/12/12 22:08:46;;;;;;;38.38;17.90;;;;;;;6.79;100.00;98666.56;10423598;28;20056;-79
2023/12/12 22:13:50;;;;;;;42.15;17.25;;;;;;;6.82;100.00;98678.78;10395737;28;20057;-79
2023/12/12 22:18:53;;;;;;;49.97;20.27;;;;;;;6.81;100.00;98663.75;10406017;28;20049;-79
2023/12/12 22:24:02;;;;;;;45.97;18.90;;;;;;;6.86;100.00;98658.84;10397851;28;20060;-79
2023/12/12 22:29:06;;;;;;;36.42;17.38;;;;;;;6.89;100.00;98663.09;10395093;28;20520;-79
2023/12/12 22:34:09;;;;;;;44.67;21.67;;;;;;;6.84;100.00;98666.97;10396436;28;20056;-79
2023/12/12 22:39:14;;;;;;;48.78;21.08;;;;;;;6.78;100.00;98664.03;10410536;28;20130;-80
2023/12/12 22:44:22;;;;;;;41.13;19.60;;;;;;;6.80;100.00;98668.25;10428011;28;20098;-80
2023/12/12 22:49:25;;;;;;;36.85;17.88;;;;;;;6.77;100.00;98665.00;10401206;28;20802;-79
2023/12/12 22:54:29;;;;;;;44.88;20.30;;;;;;;6.82;100.00;98663.59;10405095;28;20052;-79
2023/12/12 22:59:33;;;;;;;40.47;17.63;;;;;;;6.79;100.00;98658.53;10409013;28;20060;-80
2023/12/12 23:04:36;;;;;;;38.85;17.92;;;;;;;6.79;100.00;98653.22;10383282;28;20450;-79
2023/12/12 23:09:41;;;;;;;38.10;17.90;;;;;;;6.77;100.00;98654.34;10394141;28;20101;-79
2023/12/12 23:14:45;;;;;;;38.95;17.10;;;;;;;6.79;100.00;98647.03;10404209;28;20049;-79
2023/12/12 23:19:49;;;;;;;33.80;16.50;;;;;;;6.85;100.00;98649.97;10398353;28;20048;-78